Time;durP1;ratioP1;P1;durP2;ratioP2;P2;SDS_P1;SDS_P2;PMS_P1;PMS_P2;Temp;Humidity;BMP_temperature;BMP_pressure;BME280_temperature;BME280_humidity;BME280_pressure;Samples;Min_cycle;Max_cycle;Signal;HPM_P1;HPM_P2
2022/03/29 00:01:31;;;;;;;38.83;30.33;;;6.00;99.90;;;;;;5055505;28;20037;-80
2022/03/29 00:04:03;;;;;;;46.88;29.92;;;6.00;99.90;;;;;;5055324;28;20558;-80
2022/03/29 00:14:05;;;;;;;35.97;26.13;;;6.10;99.90;;;;;;5069957;28;20392;-79
2022/03/29 00:17:27;;;;;;;32.97;26.20;;;6.10;99.90;;;;;;5054710;28;20039;-79
2022/03/29 00:20:08;;;;;;;43.83;28.80;;;6.10;99.90;;;;;;5073484;28;20021;-79
2022/03/29 00:22:46;;;;;;;37.30;29.02;;;6.10;99.90;;;;;;5073525;28;20056;-79
2022/03/29 00:25:31;;;;;;;44.47;29.45;;;6.00;99.90;;;;;;5039108;28;20033;-79
2022/03/29 00:28:10;;;;;;;41.55;27.92;;;6.00;99.90;;;;;;5073065;28;20059;-79
2022/03/29 00:31:00;;;;;;;38.88;28.45;;;6.00;99.90;;;;;;5070480;28;20033;-79
2022/03/29 00:43:16;;;;;;;35.10;26.97;;;5.90;99.90;;;;;;4966630;28;20043;-78
2022/03/29 00:46:07;;;;;;;30.40;23.65;;;5.90;99.90;;;;;;4971962;28;20121;-79
2022/03/29 00:48:39;;;;;;;32.42;23.40;;;6.00;99.90;;;;;;5063184;28;20087;-79
2022/03/29 00:51:08;;;;;;;34.15;24.20;;;6.10;99.90;;;;;;5072761;28;20044;-79
2022/03/29 00:53:44;;;;;;;30.05;23.38;;;6.10;99.90;;;;;;5072889;28;20036;-79
2022/03/29 00:57:03;;;;;;;32.38;24.02;;;6.20;99.90;;;;;;5072599;28;20028;-79
2022/03/29 00:59:53;;;;;;;35.25;24.25;;;6.30;99.90;;;;;;5021665;28;20135;-79
2022/03/29 01:02:50;;;;;;;;;;;;;;;;;;;;;
2022/03/29 01:06:04;;;;;;;35.97;23.08;;;6.30;99.90;;;;;;5046596;28;20039;-80
2022/03/29 01:08:56;;;;;;;34.55;23.75;;;6.20;99.90;;;;;;5050788;28;20067;-79
2022/03/29 01:11:33;;;;;;;32.00;21.80;;;6.20;99.90;;;;;;5052612;28;20433;-79
2022/03/29 01:14:39;;;;;;;28.92;23.17;;;6.10;99.90;;;;;;5052099;28;20053;-79
2022/03/29 01:17:39;;;;;;;32.03;23.35;;;6.10;99.90;;;;;;5034789;28;20060;-79
2022/03/29 01:24:24;;;;;;;45.38;22.80;;;6.00;99.90;;;;;;5024707;28;20041;-80
2022/03/29 01:26:53;;;;;;;32.35;22.10;;;6.00;99.90;;;;;;5043551;28;20033;-81
2022/03/29 01:29:36;;;;;;;33.60;21.67;;;6.00;99.90;;;;;;5051342;28;20024;-79
2022/03/29 01:32:08;;;;;;;29.60;20.58;;;6.10;99.90;;;;;;5052300;28;20052;-80
2022/03/29 01:34:44;;;;;;;31.75;19.92;;;6.10;99.90;;;;;;5033069;28;20053;-80
2022/03/29 01:37:11;;;;;;;31.63;20.48;;;6.20;99.90;;;;;;5030844;28;20068;-79
2022/03/29 01:39:40;;;;;;;30.50;21.23;;;6.20;99.90;;;;;;5051289;28;20103;-79
2022/03/29 01:42:17;;;;;;;26.13;20.80;;;6.20;99.90;;;;;;5034438;28;20036;-79
2022/03/29 01:44:43;;;;;;;27.45;21.08;;;6.20;99.90;;;;;;5051013;28;20048;-79
2022/03/29 01:50:19;;;;;;;26.20;20.92;;;6.20;99.90;;;;;;4976174;28;20047;-79
2022/03/29 01:52:59;;;;;;;29.38;21.67;;;6.20;99.90;;;;;;4971993;28;20568;-79
2022/03/29 01:55:28;;;;;;;35.88;22.17;;;6.10;99.90;;;;;;5040674;28;20055;-79
2022/03/29 01:58:00;;;;;;;27.77;22.15;;;6.10;99.90;;;;;;5057674;28;20049;-79
2022/03/29 02:01:23;;;;;;;31.10;22.10;;;6.10;99.90;;;;;;5043040;28;20111;-79
2022/03/29 02:03:41;;;;;;;27.50;21.95;;;6.10;99.90;;;;;;5060175;28;20032;-79
2022/03/29 02:06:56;;;;;;;29.38;21.35;;;6.00;99.90;;;;;;5071424;28;20025;-79
2022/03/29 02:10:11;;;;;;;25.10;22.25;;;6.00;99.90;;;;;;5065739;28;20044;-79
2022/03/29 02:12:43;;;;;;;30.27;22.70;;;6.00;99.90;;;;;;5042998;28;20025;-79
2022/03/29 02:15:45;;;;;;;25.58;20.98;;;6.00;99.90;;;;;;5069156;28;20078;-79
2022/03/29 02:18:32;;;;;;;30.75;22.13;;;6.00;99.90;;;;;;5062736;28;20039;-79
2022/03/29 02:21:27;;;;;;;29.10;22.10;;;6.00;99.90;;;;;;5065942;28;20032;-79
2022/03/29 02:24:27;;;;;;;29.20;21.75;;;5.90;99.90;;;;;;5031861;28;20074;-79
2022/03/29 02:27:50;;;;;;;38.20;24.38;;;6.00;99.90;;;;;;5049201;28;20549;-79
2022/03/29 02:33:21;;;;;;;26.98;21.17;;;5.90;99.90;;;;;;4964832;28;20046;-79
2022/03/29 02:35:59;;;;;;;31.42;22.80;;;5.90;99.90;;;;;;5070999;28;20394;-79
2022/03/29 02:41:15;;;;;;;31.65;22.05;;;5.90;99.90;;;;;;5067980;28;20035;-79
2022/03/29 02:43:51;;;;;;;30.55;22.65;;;5.80;99.90;;;;;;5061168;28;20095;-79
2022/03/29 02:46:46;;;;;;;28.00;22.00;;;5.90;99.90;;;;;;5071004;28;20035;-79
2022/03/29 02:49:15;;;;;;;25.80;21.17;;;5.90;99.90;;;;;;5052444;28;20025;-78
2022/03/29 02:51:41;;;;;;;28.65;21.73;;;6.00;99.90;;;;;;5069981;28;20024;-79
2022/03/29 02:54:10;;;;;;;25.35;20.50;;;6.10;99.90;;;;;;5052878;28;20028;-79
2022/03/29 02:56:39;;;;;;;26.42;20.50;;;6.10;99.90;;;;;;5052433;28;20028;-78
2022/03/29 02:59:13;;;;;;;29.17;20.63;;;6.20;99.90;;;;;;5070625;28;20435;-78
2022/03/29 03:01:47;;;;;;;25.45;19.80;;;6.20;99.90;;;;;;5071490;28;20058;-79
2022/03/29 03:04:19;;;;;;;25.67;19.90;;;6.20;99.90;;;;;;5076753;28;20025;-79
2022/03/29 03:06:48;;;;;;;31.58;20.92;;;6.20;99.90;;;;;;5077054;28;20036;-79
2022/03/29 03:09:20;;;;;;;24.20;20.33;;;6.20;99.90;;;;;;5077752;28;20115;-79
2022/03/29 03:11:54;;;;;;;23.70;20.95;;;6.10;99.90;;;;;;5077205;28;20032;-79
2022/03/29 03:14:28;;;;;;;27.73;21.67;;;6.10;99.90;;;;;;5076798;28;20025;-79
2022/03/29 03:16:54;;;;;;;27.05;20.77;;;6.00;99.90;;;;;;5076977;28;20660;-79
2022/03/29 03:19:26;;;;;;;30.40;21.15;;;6.00;99.90;;;;;;5077010;28;20024;-78
2022/03/29 03:21:52;;;;;;;28.58;20.85;;;5.90;99.90;;;;;;5050239;28;20043;-79
2022/03/29 03:24:45;;;;;;;36.13;20.80;;;5.90;99.90;;;;;;5072180;28;20070;-78
2022/03/29 03:27:16;;;;;;;;;;;5.90;99.90;;;;;;5056184;28;20027;-79
2022/03/29 03:29:46;;;;;;;26.55;18.38;;;5.90;99.90;;;;;;5076577;28;19915;-78
2022/03/29 03:32:15;;;;;;;24.67;18.50;;;5.90;99.90;;;;;;5059417;28;20043;-78
2022/03/29 03:34:41;;;;;;;30.27;19.67;;;5.90;99.90;;;;;;5076721;28;20024;-78
2022/03/29 03:37:16;;;;;;;24.92;19.42;;;5.90;99.90;;;;;;5077587;28;20074;-78
2022/03/29 03:40:10;;;;;;;28.20;19.13;;;5.80;99.90;;;;;;5076756;28;20099;-78
2022/03/29 03:42:37;;;;;;;20.55;16.92;;;5.80;99.90;;;;;;5076705;28;20024;-78
2022/03/29 03:45:14;;;;;;;24.58;17.63;;;5.80;99.90;;;;;;5077044;28;20495;-78
2022/03/29 03:51:33;;;;;;;23.15;17.65;;;5.80;99.90;;;;;;5072790;28;20664;-78
2022/03/29 03:57:18;;;;;;;24.23;16.92;;;6.00;99.90;;;;;;5063282;28;20036;-78
2022/03/29 04:00:13;;;;;;;22.25;17.45;;;6.00;99.90;;;;;;5076338;28;20032;-78
2022/03/29 04:02:43;;;;;;;27.92;16.92;;;6.00;99.90;;;;;;5076692;28;20034;-78
2022/03/29 04:05:13;;;;;;;22.10;17.27;;;5.90;99.90;;;;;;5074670;28;20040;-78
2022/03/29 04:07:39;;;;;;;21.70;17.50;;;5.90;99.90;;;;;;5068259;28;20024;-78
2022/03/29 04:10:07;;;;;;;24.73;17.77;;;5.90;99.90;;;;;;5076583;28;20613;-78
2022/03/29 04:12:33;;;;;;;22.10;18.20;;;5.90;99.90;;;;;;5076812;28;20055;-78
2022/03/29 04:14:59;;;;;;;22.38;17.67;;;5.90;99.90;;;;;;5055234;28;20033;-78
2022/03/29 04:17:25;;;;;;;25.88;17.98;;;5.90;99.90;;;;;;5073979;28;20090;-79
2022/03/29 04:19:51;;;;;;;25.67;17.92;;;5.90;99.90;;;;;;5073076;28;20115;-78
2022/03/29 04:22:18;;;;;;;26.55;19.27;;;5.90;99.90;;;;;;5074022;28;20123;-78
2022/03/29 04:24:46;;;;;;;26.00;18.42;;;6.00;99.90;;;;;;5072947;28;20032;-78
2022/03/29 04:27:12;;;;;;;24.20;17.55;;;6.00;99.90;;;;;;5055807;28;20029;-78
2022/03/29 04:29:40;;;;;;;25.92;17.92;;;6.10;99.90;;;;;;5072877;28;20062;-78
2022/03/29 04:32:07;;;;;;;30.67;18.50;;;6.10;99.90;;;;;;5073573;28;20111;-78
2022/03/29 04:34:34;;;;;;;28.17;18.48;;;6.20;99.90;;;;;;5054918;28;20020;-80
2022/03/29 04:37:00;;;;;;;27.70;17.92;;;6.30;99.90;;;;;;5073008;28;20356;-78
2022/03/29 04:39:27;;;;;;;33.35;18.90;;;6.30;99.90;;;;;;5072578;28;20028;-78
2022/03/29 04:41:53;;;;;;;27.30;20.08;;;6.30;99.90;;;;;;5055465;28;20052;-78
2022/03/29 04:44:19;;;;;;;29.00;20.15;;;6.30;99.90;;;;;;5072661;28;20386;-78
2022/03/29 04:46:45;;;;;;;29.45;20.65;;;6.20;99.90;;;;;;5055578;28;20432;-78
2022/03/29 04:49:11;;;;;;;24.85;19.13;;;6.20;99.90;;;;;;5072565;28;20108;-78
2022/03/29 04:51:39;;;;;;;36.38;21.17;;;6.20;99.90;;;;;;5072949;28;20036;-78
2022/03/29 04:54:09;;;;;;;31.38;21.10;;;6.20;99.90;;;;;;5073083;28;20054;-78
2022/03/29 04:56:37;;;;;;;37.42;21.30;;;6.20;99.90;;;;;;5072720;28;20502;-79
2022/03/29 04:59:05;;;;;;;33.25;20.83;;;6.20;99.90;;;;;;5072470;28;20534;-78
2022/03/29 05:01:30;;;;;;;33.90;20.95;;;6.30;99.90;;;;;;5070421;28;20052;-79
2022/03/29 05:04:41;;;;;;;24.98;19.83;;;6.30;99.90;;;;;;5071472;28;20059;-78
2022/03/29 05:06:42;;;;;;;26.70;19.65;;;6.30;99.90;;;;;;5057915;28;20119;-78
2022/03/29 05:09:08;;;;;;;26.05;19.58;;;6.40;99.90;;;;;;5054773;28;20181;-78
2022/03/29 05:11:36;;;;;;;29.73;20.27;;;6.40;99.90;;;;;;5072430;28;20032;-78
2022/03/29 05:14:05;;;;;;;25.40;19.13;;;6.50;99.90;;;;;;5072591;28;20020;-78
2022/03/29 05:16:31;;;;;;;28.67;20.13;;;6.50;99.90;;;;;;5072138;28;20032;-79
2022/03/29 05:18:57;;;;;;;31.90;19.80;;;6.60;99.90;;;;;;5054687;28;20043;-79
2022/03/29 05:21:23;;;;;;;32.20;19.85;;;6.60;99.90;;;;;;5071938;28;20024;-79
2022/03/29 05:23:49;;;;;;;44.72;20.52;;;6.70;99.90;;;;;;5054372;28;20024;-79
2022/03/29 05:26:15;;;;;;;36.10;21.25;;;6.70;99.90;;;;;;5070876;28;20039;-79
2022/03/29 05:28:40;;;;;;;27.13;19.88;;;6.80;99.90;;;;;;5052791;28;20021;-81
2022/03/29 05:31:06;;;;;;;30.50;20.90;;;6.80;99.90;;;;;;5071801;28;20487;-80
2022/03/29 05:33:32;;;;;;;25.83;19.70;;;6.90;99.90;;;;;;5072442;28;20498;-80
2022/03/29 05:35:57;;;;;;;29.85;21.05;;;7.00;99.90;;;;;;5071602;28;20364;-80
2022/03/29 05:38:23;;;;;;;26.83;21.42;;;7.10;99.90;;;;;;5072347;28;20066;-80
2022/03/29 05:40:49;;;;;;;36.47;21.85;;;7.20;99.90;;;;;;5071458;28;20024;-80
2022/03/29 05:43:15;;;;;;;33.88;21.13;;;7.40;99.90;;;;;;5072304;28;20083;-80
2022/03/29 05:45:40;;;;;;;28.88;20.63;;;7.50;99.90;;;;;;5071270;28;20479;-80
2022/03/29 05:50:52;;;;;;;28.48;18.77;;;7.70;99.90;;;;;;5071438;28;20064;-80
2022/03/29 05:53:18;;;;;;;28.38;19.23;;;7.80;99.90;;;;;;5072253;28;20111;-81
2022/03/29 05:55:45;;;;;;;32.08;21.48;;;7.90;99.90;;;;;;5070926;28;20103;-78
2022/03/29 05:58:11;;;;;;;33.25;20.33;;;8.00;99.90;;;;;;5067893;28;20063;-79
2022/03/29 06:00:37;;;;;;;28.83;18.55;;;8.10;99.90;;;;;;5070976;28;20292;-80
2022/03/29 06:03:03;;;;;;;30.00;19.35;;;8.20;99.90;;;;;;5072014;28;20491;-80
2022/03/29 06:05:29;;;;;;;27.63;19.10;;;8.30;99.90;;;;;;5043396;28;20039;-81
2022/03/29 06:07:55;;;;;;;23.08;18.88;;;8.50;99.90;;;;;;5069699;28;20107;-78
2022/03/29 06:10:21;;;;;;;27.98;18.75;;;8.60;99.90;;;;;;5063449;28;20032;-79
2022/03/29 06:12:47;;;;;;;33.47;19.08;;;8.80;99.90;;;;;;5071446;28;20490;-80
2022/03/29 06:15:13;;;;;;;26.58;18.85;;;8.90;99.90;;;;;;5045806;28;20029;-79
2022/03/29 06:17:39;;;;;;;26.05;19.08;;;9.00;99.90;;;;;;5071618;28;20012;-79
2022/03/29 06:20:07;;;;;;;27.10;19.02;;;9.10;99.90;;;;;;5049077;28;20399;-79
2022/03/29 06:22:43;;;;;;;24.83;18.52;;;9.30;99.90;;;;;;5069382;28;20017;-76
2022/03/29 06:25:10;;;;;;;30.27;19.15;;;9.40;99.90;;;;;;5047596;28;20037;-79
2022/03/29 06:27:36;;;;;;;35.85;19.70;;;9.50;99.90;;;;;;5069399;28;20044;-79
2022/03/29 06:30:04;;;;;;;28.50;18.90;;;9.60;99.90;;;;;;5066780;28;20029;-79
2022/03/29 06:32:30;;;;;;;40.97;19.20;;;9.70;99.90;;;;;;5069528;28;20028;-79
2022/03/29 06:34:55;;;;;;;22.48;17.75;;;9.80;99.90;;;;;;5067395;28;20506;-79
2022/03/29 06:37:21;;;;;;;27.27;18.42;;;10.00;99.90;;;;;;5068048;28;20047;-79
2022/03/29 06:39:47;;;;;;;26.23;18.73;;;10.10;99.90;;;;;;5067894;28;20029;-79
2022/03/29 06:42:17;;;;;;;31.05;17.02;;;10.20;99.90;;;;;;5051388;28;20514;-79
2022/03/29 06:44:44;;;;;;;24.52;17.60;;;10.30;99.90;;;;;;5068215;28;20396;-79
2022/03/29 06:47:11;;;;;;;27.35;18.80;;;10.40;99.90;;;;;;5062958;28;20094;-79
2022/03/29 06:49:37;;;;;;;19.17;16.75;;;10.50;99.90;;;;;;5067792;28;20090;-79
2022/03/29 06:52:03;;;;;;;27.40;18.17;;;10.60;99.90;;;;;;5051374;28;20487;-79
2022/03/29 06:54:30;;;;;;;32.10;17.02;;;10.60;99.90;;;;;;5050923;28;20864;-79
2022/03/29 06:56:56;;;;;;;25.27;17.10;;;10.70;99.90;;;;;;5067828;28;20024;-79
2022/03/29 06:59:22;;;;;;;27.42;18.38;;;10.90;99.90;;;;;;5068677;28;20040;-79
2022/03/29 07:01:48;;;;;;;26.90;19.27;;;11.00;99.90;;;;;;5068088;28;20055;-79
2022/03/29 07:04:14;;;;;;;29.30;18.80;;;11.00;99.90;;;;;;5050542;28;20390;-79
2022/03/29 07:06:39;;;;;;;28.40;17.30;;;11.10;99.90;;;;;;5049874;28;20017;-79
2022/03/29 07:11:49;;;;;;;30.25;17.33;;;11.30;99.90;;;;;;5065203;28;20126;-79
2022/03/29 07:14:15;;;;;;;29.90;18.70;;;11.40;99.90;;;;;;5069634;28;20052;-80
2022/03/29 07:16:43;;;;;;;35.90;20.17;;;11.40;99.90;;;;;;5050368;28;20055;-80
2022/03/29 07:19:09;;;;;;;33.83;21.75;;;11.40;99.90;;;;;;5053650;28;20032;-83
2022/03/29 07:21:39;;;;;;;44.03;23.02;;;11.50;99.90;;;;;;5048823;28;20032;-83
2022/03/29 07:24:08;;;;;;;53.25;24.95;;;11.60;99.90;;;;;;5050647;28;20033;-77
2022/03/29 07:26:35;;;;;;;42.00;24.17;;;11.70;99.90;;;;;;5067980;28;20107;-76
2022/03/29 07:29:01;;;;;;;42.40;23.58;;;11.70;99.90;;;;;;5066768;28;20025;-80
2022/03/29 07:31:27;;;;;;;30.83;19.73;;;11.80;99.90;;;;;;5049882;28;20036;-77
2022/03/29 07:33:53;;;;;;;27.33;20.27;;;11.90;99.90;;;;;;5052270;28;20029;-78
2022/03/29 07:36:18;;;;;;;39.67;20.83;;;12.00;99.90;;;;;;5067579;28;20487;-80
2022/03/29 07:38:45;;;;;;;25.48;18.85;;;12.20;99.90;;;;;;5069654;28;20074;-79
2022/03/29 07:41:11;;;;;;;31.90;18.63;;;12.30;99.90;;;;;;5067606;28;20021;-79
2022/03/29 07:43:36;;;;;;;31.05;17.75;;;12.40;99.90;;;;;;5050740;28;20070;-79
2022/03/29 07:46:02;;;;;;;27.35;19.17;;;12.50;99.90;;;;;;5046922;28;20534;-80
2022/03/29 07:48:28;;;;;;;30.50;19.20;;;12.60;99.90;;;;;;5066537;28;20017;-79
2022/03/29 07:50:55;;;;;;;23.20;16.23;;;12.70;99.90;;;;;;5068545;28;20032;-80
2022/03/29 07:53:22;;;;;;;26.33;15.70;;;12.80;99.90;;;;;;5071175;28;20009;-79
2022/03/29 07:55:48;;;;;;;21.52;15.73;;;12.90;99.90;;;;;;5069598;28;20033;-80
2022/03/29 07:58:16;;;;;;;22.92;15.60;;;13.00;99.90;;;;;;5068724;28;20037;-79
2022/03/29 08:00:42;;;;;;;23.98;15.52;;;13.10;99.90;;;;;;5070292;28;20671;-79
2022/03/29 08:03:12;;;;;;;34.25;16.70;;;13.20;99.90;;;;;;5055268;28;20030;-85
2022/03/29 08:05:44;;;;;;;24.73;16.27;;;13.20;99.90;;;;;;5070523;28;20548;-80
2022/03/29 08:08:11;;;;;;;42.70;19.75;;;13.30;99.90;;;;;;5053037;28;20020;-79
2022/03/29 08:10:38;;;;;;;30.10;18.63;;;13.40;99.90;;;;;;5069627;28;20020;-80
2022/03/29 08:13:07;;;;;;;29.75;18.10;;;13.50;99.90;;;;;;5072392;28;20367;-80
2022/03/29 08:15:34;;;;;;;37.15;18.60;;;13.50;99.90;;;;;;5053786;28;20020;-80
2022/03/29 08:18:03;;;;;;;29.20;17.67;;;13.60;99.90;;;;;;5054080;28;20040;-80
2022/03/29 08:20:29;;;;;;;24.85;16.80;;;13.60;99.90;;;;;;5067489;28;20028;-92
2022/03/29 08:23:00;;;;;;;23.48;17.00;;;13.60;99.90;;;;;;5072623;28;20016;-79
2022/03/29 08:25:27;;;;;;;25.85;15.85;;;13.70;99.90;;;;;;5070218;28;20021;-80
2022/03/29 08:27:55;;;;;;;24.42;17.42;;;13.80;99.90;;;;;;5072315;28;20021;-86
2022/03/29 08:30:21;;;;;;;29.58;16.92;;;13.90;99.90;;;;;;5052572;28;20024;-80
2022/03/29 08:32:47;;;;;;;24.88;16.70;;;14.00;99.90;;;;;;5072285;28;20036;-80
2022/03/29 08:35:13;;;;;;;28.80;16.52;;;14.20;99.90;;;;;;5072104;28;20021;-80
2022/03/29 08:37:40;;;;;;;26.20;17.50;;;14.40;99.90;;;;;;5071577;28;20487;-80
2022/03/29 08:40:12;;;;;;;23.75;15.52;;;14.70;99.90;;;;;;5072239;28;20021;-80
2022/03/29 08:42:42;;;;;;;22.65;15.65;;;15.00;99.90;;;;;;5072699;28;20048;-80
2022/03/29 08:45:10;;;;;;;23.85;15.05;;;15.20;99.90;;;;;;5069240;28;20017;-80
2022/03/29 08:47:36;;;;;;;28.77;16.83;;;15.30;99.90;;;;;;5069182;28;20477;-79
2022/03/29 08:50:06;;;;;;;21.90;15.68;;;15.30;99.90;;;;;;5053632;28;20121;-79
2022/03/29 08:52:33;;;;;;;24.75;15.75;;;15.20;99.90;;;;;;5068439;28;20020;-79
2022/03/29 08:54:59;;;;;;;23.80;14.48;;;14.90;99.90;;;;;;5071008;28;20032;-80
2022/03/29 08:57:25;;;;;;;20.33;13.40;;;14.80;99.90;;;;;;5053596;28;20053;-80
2022/03/29 08:59:50;;;;;;;23.35;14.88;;;14.50;99.90;;;;;;5071586;28;20032;-79
2022/03/29 09:02:17;;;;;;;25.20;13.90;;;14.60;99.90;;;;;;5055163;28;20029;-80
2022/03/29 09:04:44;;;;;;;20.80;13.90;;;14.80;99.90;;;;;;5070563;28;20017;-79
2022/03/29 09:07:10;;;;;;;21.63;13.55;;;14.90;99.90;;;;;;5071270;28;20133;-80
2022/03/29 09:09:38;;;;;;;18.55;10.55;;;15.00;99.90;;;;;;5051597;28;20170;-79
2022/03/29 09:12:12;;;;;;;16.83;10.35;;;15.00;99.90;;;;;;5071037;28;20124;-79
2022/03/29 09:14:58;;;;;;;22.77;15.25;;;15.20;99.90;;;;;;5069978;28;20023;-80
2022/03/29 09:17:27;;;;;;;20.92;13.20;;;15.40;99.90;;;;;;5051423;28;20024;-80
2022/03/29 09:19:55;;;;;;;30.08;14.40;;;15.40;99.90;;;;;;5070469;28;20021;-78
2022/03/29 09:22:42;;;;;;;20.80;13.35;;;15.20;99.90;;;;;;5071101;28;20020;-79
2022/03/29 09:25:15;;;;;;;27.33;13.88;;;15.10;99.90;;;;;;5070533;28;20035;-78
2022/03/29 09:27:57;;;;;;;18.10;12.82;;;15.00;99.90;;;;;;5049530;28;20031;-79
2022/03/29 09:30:25;;;;;;;15.98;10.68;;;15.20;99.90;;;;;;5045424;28;20028;-78
2022/03/29 09:33:14;;;;;;;18.55;10.45;;;15.40;99.90;;;;;;5071267;28;20041;-78
2022/03/29 09:36:00;;;;;;;16.02;9.93;;;15.20;99.90;;;;;;5070553;28;20025;-79
2022/03/29 09:38:26;;;;;;;19.35;11.00;;;15.00;99.90;;;;;;5050625;28;20023;-77
2022/03/29 09:40:54;;;;;;;21.10;9.60;;;15.00;99.90;;;;;;5068514;28;20048;-78
2022/03/29 09:43:25;;;;;;;19.05;9.43;;;15.00;99.90;;;;;;5068124;28;20021;-78
2022/03/29 09:45:54;;;;;;;18.77;10.35;;;14.90;99.90;;;;;;5069057;28;20028;-78
2022/03/29 09:48:42;;;;;;;20.48;10.50;;;14.90;99.90;;;;;;5051220;28;20063;-78
2022/03/29 09:51:08;;;;;;;17.35;9.23;;;14.90;99.90;;;;;;5068539;28;20042;-78
2022/03/29 09:53:51;;;;;;;14.65;9.77;;;14.90;99.90;;;;;;5052033;28;20453;-79
2022/03/29 09:56:24;;;;;;;17.38;9.50;;;15.00;99.90;;;;;;5068885;28;20321;-78
2022/03/29 09:59:11;;;;;;;21.00;10.02;;;15.00;99.90;;;;;;5069469;28;20047;-78
2022/03/29 10:01:47;;;;;;;16.48;9.35;;;15.00;99.90;;;;;;5068847;28;20039;-78
2022/03/29 10:04:17;;;;;;;20.92;9.50;;;15.10;99.90;;;;;;5051934;28;20103;-79
2022/03/29 10:06:57;;;;;;;17.60;9.30;;;15.30;99.90;;;;;;5052466;28;20127;-78
2022/03/29 10:09:27;;;;;;;13.02;8.52;;;15.20;99.90;;;;;;5070278;28;20024;-78
2022/03/29 10:12:04;;;;;;;15.43;8.63;;;15.20;99.90;;;;;;5051271;28;20064;-79
2022/03/29 10:14:43;;;;;;;14.18;8.63;;;15.20;99.90;;;;;;5070729;28;20099;-78
2022/03/29 10:17:08;;;;;;;17.15;9.10;;;15.30;99.90;;;;;;5053684;28;20040;-79
2022/03/29 10:19:38;;;;;;;18.77;8.23;;;15.30;99.90;;;;;;5070679;28;20361;-79
2022/03/29 10:22:05;;;;;;;14.43;8.50;;;15.40;99.90;;;;;;5071033;28;20495;-78
2022/03/29 10:24:31;;;;;;;19.50;8.93;;;15.50;99.90;;;;;;5070632;28;20427;-78
2022/03/29 10:27:02;;;;;;;15.77;8.85;;;15.40;99.90;;;;;;5071467;28;20031;-78
2022/03/29 10:29:29;;;;;;;15.98;8.13;;;15.40;99.90;;;;;;5052108;28;20032;-78
2022/03/29 10:31:54;;;;;;;20.95;7.82;;;15.50;99.90;;;;;;5071053;28;20036;-79
2022/03/29 10:34:30;;;;;;;16.48;7.13;;;15.50;99.90;;;;;;5070457;28;20023;-78
2022/03/29 10:37:11;;;;;;;14.57;7.68;;;15.50;99.90;;;;;;5069834;28;20025;-78
2022/03/29 10:39:53;;;;;;;14.25;7.60;;;15.60;99.90;;;;;;5051929;28;20051;-78
2022/03/29 10:42:38;;;;;;;16.88;8.38;;;15.80;99.90;;;;;;5071175;28;20032;-78
2022/03/29 10:45:06;;;;;;;11.38;7.53;;;15.80;99.90;;;;;;5052218;28;20039;-78
2022/03/29 10:47:33;;;;;;;14.48;7.38;;;15.60;99.90;;;;;;5071117;28;20033;-78
2022/03/29 10:49:59;;;;;;;14.05;7.93;;;15.50;99.90;;;;;;5070069;28;20009;-79
2022/03/29 10:52:25;;;;;;;14.18;7.55;;;15.50;99.90;;;;;;5071074;28;20032;-78
2022/03/29 10:54:53;;;;;;;18.77;7.68;;;15.30;99.90;;;;;;5070114;28;20031;-78
2022/03/29 10:57:28;;;;;;;12.70;6.25;;;15.20;99.90;;;;;;5070593;28;20025;-78
2022/03/29 11:00:06;;;;;;;13.70;7.15;;;15.20;99.90;;;;;;5069925;28;20105;-76
2022/03/29 11:02:33;;;;;;;15.82;6.97;;;15.40;99.90;;;;;;5070993;28;20027;-76
2022/03/29 11:05:10;;;;;;;22.05;7.55;;;15.30;99.90;;;;;;5069946;28;20033;-76
2022/03/29 11:07:59;;;;;;;14.50;7.70;;;15.20;99.90;;;;;;5071166;28;20059;-76
2022/03/29 11:10:43;;;;;;;14.90;7.15;;;15.10;99.90;;;;;;5050034;28;20451;-76
2022/03/29 11:13:40;;;;;;;16.27;7.40;;;15.00;99.90;;;;;;5070472;28;20115;-76
2022/03/29 11:16:29;;;;;;;12.75;7.13;;;15.00;99.90;;;;;;5068435;28;20086;-76
2022/03/29 11:18:55;;;;;;;13.93;6.63;;;15.30;99.90;;;;;;5052944;28;20025;-76
2022/03/29 11:21:32;;;;;;;11.65;6.80;;;15.40;99.90;;;;;;5070243;28;20035;-76
2022/03/29 11:24:05;;;;;;;15.07;7.43;;;15.30;99.90;;;;;;5072920;28;20035;-76
2022/03/29 11:26:32;;;;;;;12.13;6.50;;;15.20;99.90;;;;;;5044542;28;20020;-76
2022/03/29 11:28:59;;;;;;;14.10;6.53;;;15.30;99.90;;;;;;5074375;28;20036;-76
2022/03/29 11:31:36;;;;;;;12.07;6.88;;;15.40;99.90;;;;;;5073786;28;20111;-76
2022/03/29 11:34:03;;;;;;;13.55;7.38;;;15.60;99.90;;;;;;5074261;28;20073;-76
2022/03/29 11:36:30;;;;;;;13.32;6.82;;;15.50;99.90;;;;;;5073853;28;20113;-76
2022/03/29 11:38:57;;;;;;;15.30;7.88;;;15.40;99.90;;;;;;5074063;28;20086;-76
2022/03/29 11:41:26;;;;;;;15.13;8.93;;;15.50;99.90;;;;;;5053338;28;20063;-77
2022/03/29 11:43:53;;;;;;;13.60;9.10;;;15.50;99.90;;;;;;5074008;28;20216;-76
2022/03/29 11:46:19;;;;;;;13.63;7.97;;;15.70;99.90;;;;;;5071814;28;20036;-76
2022/03/29 11:48:50;;;;;;;11.98;9.20;;;15.70;99.90;;;;;;5056124;28;20032;-76
2022/03/29 11:51:17;;;;;;;18.17;9.43;;;15.80;99.90;;;;;;5073531;28;20040;-76
2022/03/29 11:53:43;;;;;;;16.55;9.73;;;15.90;99.90;;;;;;5054750;28;20036;-77
2022/03/29 11:56:13;;;;;;;14.88;10.00;;;16.20;99.90;;;;;;5045066;28;20040;-76
2022/03/29 11:58:39;;;;;;;15.30;10.23;;;16.50;99.90;;;;;;5055600;28;20498;-76
2022/03/29 12:01:10;;;;;;;18.27;10.13;;;16.40;99.90;;;;;;5073135;28;20032;-76
2022/03/29 12:03:38;;;;;;;19.60;11.80;;;16.30;99.90;;;;;;5074265;28;20111;-76
2022/03/29 12:06:06;;;;;;;16.08;10.65;;;16.40;99.90;;;;;;5073230;28;20094;-77
2022/03/29 12:08:51;;;;;;;16.88;10.10;;;16.30;99.90;;;;;;5073947;28;20023;-76
2022/03/29 12:11:22;;;;;;;21.55;11.63;;;16.70;99.90;;;;;;5073062;28;20079;-76
2022/03/29 12:14:09;;;;;;;15.88;10.82;;;16.40;99.90;;;;;;5073503;28;20472;-76
2022/03/29 12:16:39;;;;;;;14.85;10.27;;;16.70;99.90;;;;;;5055542;28;20044;-77
2022/03/29 12:19:08;;;;;;;16.38;10.25;;;18.80;99.90;;;;;;5073392;28;20139;-76
2022/03/29 12:21:35;;;;;;;19.20;11.35;;;20.20;99.90;;;;;;5055169;28;20028;-77
2022/03/29 12:24:07;;;;;;;17.27;11.88;;;20.80;99.90;;;;;;5073171;28;20486;-76
2022/03/29 12:26:35;;;;;;;14.82;11.73;;;20.60;99.90;;;;;;5072993;28;20487;-76
2022/03/29 12:29:01;;;;;;;16.90;12.02;;;21.10;99.90;;;;;;5073499;28;20028;-77
2022/03/29 12:31:28;;;;;;;16.77;11.80;;;21.50;99.90;;;;;;5072691;28;20043;-77
2022/03/29 12:33:55;;;;;;;17.83;11.30;;;20.60;99.90;;;;;;5073175;28;20403;-77
2022/03/29 12:36:22;;;;;;;15.00;8.93;;;20.50;99.90;;;;;;5072513;28;20117;-77
2022/03/29 12:39:03;;;;;;;14.40;8.45;;;20.60;99.90;;;;;;5073281;28;20024;-76
2022/03/29 12:41:46;;;;;;;12.77;7.90;;;21.20;99.90;;;;;;5072441;28;20052;-76
2022/03/29 12:44:14;;;;;;;14.18;8.10;;;21.00;99.90;;;;;;5072729;28;20020;-76
2022/03/29 12:46:44;;;;;;;17.52;9.57;;;21.00;99.90;;;;;;5073363;28;20029;-76
2022/03/29 12:49:10;;;;;;;14.52;8.07;;;21.30;99.90;;;;;;5054725;28;20467;-76
2022/03/29 12:51:40;;;;;;;14.15;9.23;;;21.70;99.90;;;;;;5054986;28;20116;-76
2022/03/29 12:54:08;;;;;;;12.90;7.88;;;22.50;99.90;;;;;;5054968;28;20471;-77
2022/03/29 12:56:40;;;;;;;19.50;9.00;;;22.90;99.90;;;;;;5072956;28;20040;-76
2022/03/29 12:59:35;;;;;;;18.08;9.02;;;22.90;99.90;;;;;;5072811;28;20270;-76
2022/03/29 13:02:23;;;;;;;14.65;8.27;;;22.70;99.90;;;;;;5072623;28;20024;-76
2022/03/29 13:04:58;;;;;;;18.33;8.00;;;22.00;99.90;;;;;;5072442;28;20024;-77
2022/03/29 13:07:41;;;;;;;20.63;7.97;;;21.70;99.90;;;;;;5072935;28;20025;-77
2022/03/29 13:10:18;;;;;;;16.17;8.10;;;21.90;99.90;;;;;;5072441;28;20017;-76
2022/03/29 13:12:51;;;;;;;15.85;8.27;;;22.50;99.90;;;;;;5069365;28;20020;-77
2022/03/29 13:15:36;;;;;;;11.82;6.78;;;22.50;99.90;;;;;;5072286;28;20029;-76
2022/03/29 13:18:16;;;;;;;15.95;9.45;;;22.40;99.90;;;;;;5072698;28;20092;-77
2022/03/29 13:20:42;;;;;;;12.60;6.80;;;22.60;99.90;;;;;;5071810;28;20039;-77
2022/03/29 13:23:08;;;;;;;10.20;6.95;;;22.70;99.90;;;;;;5072018;28;20025;-77
2022/03/29 13:25:36;;;;;;;13.57;6.72;;;22.20;99.90;;;;;;5070902;28;20025;-77
2022/03/29 13:28:03;;;;;;;13.75;6.53;;;22.70;99.90;;;;;;5071876;28;20091;-76
2022/03/29 13:30:30;;;;;;;14.18;6.93;;;22.80;99.90;;;;;;5071256;28;20025;-77
2022/03/29 13:32:57;;;;;;;15.88;7.28;;;22.50;99.90;;;;;;5072387;28;20050;-77
2022/03/29 13:35:23;;;;;;;14.82;7.43;;;22.70;99.90;;;;;;5071198;28;20036;-77
2022/03/29 13:37:49;;;;;;;16.77;6.88;;;22.70;99.90;;;;;;5071649;28;20483;-77
2022/03/29 13:40:16;;;;;;;12.95;6.93;;;22.90;99.90;;;;;;5069473;28;20055;-77
2022/03/29 13:42:42;;;;;;;15.32;6.85;;;22.80;99.90;;;;;;5070071;28;20070;-77
2022/03/29 13:45:10;;;;;;;15.55;7.40;;;22.10;99.90;;;;;;5069653;28;20116;-77